createdAt,value
2022-08-23T00:01:39.386Z,23.80
2022-08-23T00:04:08.806Z,23.80
2022-08-23T00:06:38.971Z,23.90
2022-08-23T00:09:06.326Z,23.90
2022-08-23T00:11:37.064Z,23.80
2022-08-23T00:14:08.515Z,23.70
2022-08-23T00:16:36.131Z,23.60
2022-08-23T00:19:09.176Z,23.60
2022-08-23T00:21:37.319Z,23.60
2022-08-23T00:24:06.905Z,23.40
2022-08-23T00:26:52.668Z,23.40
2022-08-23T00:29:20.432Z,23.40
2022-08-23T00:31:47.833Z,23.30
2022-08-23T00:34:15.100Z,23.30
2022-08-23T00:36:44.873Z,23.40
2022-08-23T00:39:13.457Z,23.30
2022-08-23T00:41:40.598Z,23.40
2022-08-23T00:44:32.308Z,23.40
2022-08-23T00:47:25.407Z,23.40
2022-08-23T00:50:23.783Z,23.30
2022-08-23T00:52:53.756Z,23.30
2022-08-23T00:55:21.236Z,23.30
2022-08-23T00:57:48.371Z,23.30
2022-08-23T01:00:22.786Z,23.30
2022-08-23T01:02:51.048Z,23.40
2022-08-23T01:05:19.137Z,23.40
2022-08-23T01:07:55.183Z,23.40
2022-08-23T01:10:24.322Z,23.50
2022-08-23T01:12:59.055Z,23.50
2022-08-23T01:15:30.503Z,23.60
2022-08-23T01:18:02.853Z,23.60
2022-08-23T01:20:38.497Z,23.60
2022-08-23T01:23:19.281Z,23.60
2022-08-23T01:25:46.568Z,23.60
2022-08-23T01:31:47.321Z,23.50
2022-08-23T01:34:16.211Z,23.50
2022-08-23T01:36:46.365Z,23.60
2022-08-23T01:39:13.449Z,23.60
2022-08-23T01:41:43.334Z,23.60
2022-08-23T01:44:13.011Z,23.60
2022-08-23T01:46:42.770Z,23.50
2022-08-23T01:49:31.161Z,23.50
2022-08-23T01:52:07.663Z,23.60
2022-08-23T01:54:36.725Z,23.60
2022-08-23T01:57:59.435Z,23.70
2022-08-23T02:00:30.354Z,23.70
2022-08-23T02:02:58.008Z,23.70
2022-08-23T02:05:26.286Z,23.70
2022-08-23T02:07:53.495Z,23.70
2022-08-23T02:10:20.834Z,23.60
2022-08-23T02:12:50.288Z,23.60
2022-08-23T02:15:17.868Z,23.60
2022-08-23T02:17:47.688Z,23.60
2022-08-23T02:20:14.930Z,23.60
2022-08-23T02:22:42.287Z,23.60
2022-08-23T02:25:09.543Z,23.70
2022-08-23T02:27:36.791Z,23.60
2022-08-23T02:33:49.971Z,23.80
2022-08-23T02:38:45.812Z,23.70
2022-08-23T02:41:38.394Z,23.70
2022-08-23T02:44:08.708Z,23.70
2022-08-23T02:46:36.376Z,23.70
2022-08-23T02:49:04.191Z,23.60
2022-08-23T02:51:31.490Z,23.60
2022-08-23T02:53:58.600Z,23.50
2022-08-23T02:56:27.573Z,23.30
2022-08-23T02:58:54.977Z,23.10
2022-08-23T03:01:25.758Z,23.20
2022-08-23T03:03:55.145Z,23.00
2022-08-23T03:06:25.703Z,23.00
2022-08-23T03:08:54.277Z,23.00
2022-08-23T03:11:21.976Z,23.00
2022-08-23T03:16:43.275Z,23.00
2022-08-23T03:19:10.619Z,23.00
2022-08-23T03:21:38.451Z,22.90
2022-08-23T03:26:50.534Z,22.80
2022-08-23T03:29:17.957Z,22.80
2022-08-23T03:32:02.634Z,22.90
2022-08-23T03:34:34.720Z,22.90
2022-08-23T03:37:21.790Z,22.90
2022-08-23T03:39:49.693Z,22.80
2022-08-23T03:42:16.923Z,22.60
2022-08-23T03:44:48.311Z,22.50
2022-08-23T03:47:15.536Z,22.50
2022-08-23T03:49:44.992Z,22.50
2022-08-23T03:52:13.329Z,22.60
2022-08-23T03:54:40.496Z,22.60
2022-08-23T04:00:15.344Z,22.60
2022-08-23T04:02:49.969Z,22.60
2022-08-23T04:05:17.366Z,22.50
2022-08-23T04:07:58.606Z,22.40
2022-08-23T04:10:25.858Z,22.30
2022-08-23T04:12:55.604Z,22.30
2022-08-23T04:15:22.844Z,22.00
2022-08-23T04:17:50.107Z,22.00
2022-08-23T04:20:17.804Z,22.10
2022-08-23T04:22:55.733Z,22.10
2022-08-23T04:25:34.491Z,22.20
2022-08-23T04:28:04.097Z,22.20
2022-08-23T04:30:32.433Z,22.30
2022-08-23T04:32:59.988Z,22.30
2022-08-23T04:35:34.373Z,22.40
2022-08-23T04:38:01.786Z,22.40
2022-08-23T04:40:48.548Z,22.40
2022-08-23T04:43:18.198Z,22.30
2022-08-23T04:46:10.346Z,22.10
2022-08-23T04:48:37.683Z,22.00
2022-08-23T04:51:05.862Z,21.90
2022-08-23T04:54:13.123Z,21.80
2022-08-23T04:57:09.051Z,21.80
2022-08-23T05:00:14.726Z,21.90
2022-08-23T05:02:46.637Z,21.90
2022-08-23T05:05:14.453Z,22.10
2022-08-23T05:08:31.090Z,22.10
2022-08-23T05:11:05.583Z,22.10
2022-08-23T05:13:34.719Z,22.10
2022-08-23T05:16:04.062Z,22.20
2022-08-23T05:18:34.628Z,22.30
2022-08-23T05:21:03.938Z,22.50
2022-08-23T05:23:32.425Z,22.70
2022-08-23T05:26:12.732Z,22.90
2022-08-23T05:28:45.545Z,23.00
2022-08-23T05:31:40.430Z,23.00
2022-08-23T05:34:07.876Z,23.00
2022-08-23T05:36:56.649Z,23.00
2022-08-23T05:39:39.579Z,22.60
2022-08-23T05:42:08.737Z,22.50
2022-08-23T05:44:37.244Z,22.60
2022-08-23T05:47:10.512Z,22.70
2022-08-23T05:49:44.897Z,22.80
2022-08-23T05:52:12.837Z,23.00
2022-08-23T05:54:42.919Z,23.30
2022-08-23T05:57:43.424Z,23.40
2022-08-23T06:00:14.194Z,23.70
2022-08-23T06:02:49.926Z,23.90
2022-08-23T06:05:20.404Z,24.10
2022-08-23T06:07:49.524Z,24.20
2022-08-23T06:10:44.218Z,24.40
2022-08-23T06:13:21.215Z,24.50
2022-08-23T06:15:48.933Z,24.70
2022-08-23T06:18:17.040Z,24.80
2022-08-23T06:21:07.913Z,25.30
2022-08-23T06:24:00.753Z,25.70
2022-08-23T06:29:55.201Z,26.80
2022-08-23T06:36:13.664Z,27.80
2022-08-23T06:39:37.643Z,28.10
2022-08-23T06:43:10.183Z,28.20
2022-08-23T06:57:32.699Z,29.00
2022-08-23T07:00:29.618Z,29.00
2022-08-23T07:11:00.658Z,28.60
2022-08-23T07:13:28.605Z,29.00
2022-08-23T07:22:08.267Z,29.30
2022-08-23T07:25:05.052Z,29.60
2022-08-23T07:27:43.441Z,30.00
2022-08-23T07:30:14.402Z,30.00
2022-08-23T07:32:41.780Z,30.30
2022-08-23T07:39:37.610Z,30.00
2022-08-23T07:42:23.592Z,29.70
2022-08-23T07:45:18.598Z,29.60
2022-08-23T07:47:51.280Z,29.80
2022-08-23T07:50:19.911Z,30.00
2022-08-23T07:52:51.574Z,30.20
2022-08-23T07:55:30.394Z,30.40
2022-08-23T07:58:24.726Z,30.50
2022-08-23T08:00:59.724Z,30.60
2022-08-23T08:04:15.137Z,30.10
2022-08-23T08:09:28.038Z,29.90
2022-08-23T08:11:58.253Z,30.10
2022-08-23T08:14:28.787Z,30.00
2022-08-23T08:17:02.795Z,29.90
2022-08-23T08:24:00.472Z,30.10
2022-08-23T08:27:15.379Z,29.70
2022-08-23T08:29:46.177Z,29.50
2022-08-23T08:32:20.630Z,29.80
2022-08-23T08:34:47.883Z,30.10
2022-08-23T08:37:36.849Z,30.50
2022-08-23T08:40:18.620Z,30.90
2022-08-23T08:46:56.923Z,30.90
2022-08-23T08:49:40.879Z,31.20
2022-08-23T08:52:20.346Z,31.40
2022-08-23T08:55:11.193Z,31.40
2022-08-23T08:57:51.326Z,31.10
2022-08-23T09:07:37.689Z,31.50
2022-08-23T09:13:44.170Z,31.30
2022-08-23T09:19:15.642Z,31.20
2022-08-23T09:25:40.605Z,31.10
2022-08-23T09:31:40.827Z,31.00
2022-08-23T09:38:47.429Z,30.80
2022-08-23T10:01:02.292Z,31.00
2022-08-23T10:04:05.268Z,31.00
2022-08-23T10:06:38.459Z,30.90
2022-08-23T10:09:22.404Z,30.70
2022-08-23T10:11:59.806Z,30.70
2022-08-23T10:25:42.558Z,30.60
2022-08-23T10:32:08.765Z,30.70
2022-08-23T10:34:51.342Z,30.70
2022-08-23T10:37:41.848Z,30.80
2022-08-23T10:40:21.260Z,30.80
2022-08-23T10:43:39.203Z,30.50
2022-08-23T10:46:12.468Z,30.40
2022-08-23T10:52:30.739Z,30.40
2022-08-23T10:57:58.404Z,30.30
2022-08-23T11:04:31.492Z,30.60
2022-08-23T11:25:03.533Z,30.00
2022-08-23T11:27:40.740Z,30.30
2022-08-23T11:30:31.881Z,30.20
2022-08-23T11:33:20.981Z,30.10
2022-08-23T11:36:11.363Z,30.10
2022-08-23T11:38:49.287Z,30.00
2022-08-23T11:41:50.323Z,30.20
2022-08-23T11:44:22.591Z,30.30
2022-08-23T11:47:11.507Z,30.40
2022-08-23T11:49:59.372Z,30.10
2022-08-23T11:52:49.309Z,30.10
2022-08-23T12:00:02.468Z,29.70
2022-08-23T12:03:23.310Z,29.90
2022-08-23T12:06:21.473Z,29.90
2022-08-23T12:11:56.328Z,30.00
2022-08-23T12:14:31.462Z,30.00
2022-08-23T12:26:47.349Z,29.80
2022-08-23T12:33:10.292Z,30.30
2022-08-23T12:39:41.067Z,30.60
2022-08-23T12:42:20.886Z,30.60
2022-08-23T12:52:01.836Z,30.30
2022-08-23T12:54:42.425Z,30.40
2022-08-23T13:03:46.291Z,30.30
2022-08-23T13:06:31.456Z,30.50
2022-08-23T13:15:43.587Z,30.40
2022-08-23T13:18:12.461Z,30.50
2022-08-23T13:30:41.007Z,30.30
2022-08-23T13:39:19.476Z,30.50
2022-08-23T13:42:23.621Z,30.60
2022-08-23T13:45:27.915Z,30.70
2022-08-23T13:48:00.799Z,30.90
2022-08-23T13:50:32.290Z,30.90
2022-08-23T13:53:22.420Z,30.90
2022-08-23T13:59:58.569Z,31.20
2022-08-23T14:02:57.478Z,31.00
2022-08-23T14:05:33.047Z,31.00
2022-08-23T14:08:09.932Z,30.90
2022-08-23T14:14:24.386Z,30.70
2022-08-23T14:28:59.660Z,30.70
2022-08-23T14:35:11.397Z,30.60
2022-08-23T14:40:59.373Z,30.60
2022-08-23T14:43:30.077Z,30.60
2022-08-23T14:46:09.722Z,30.70
2022-08-23T14:51:43.297Z,30.80
2022-08-23T14:54:21.097Z,30.60
2022-08-23T14:56:50.838Z,30.50
2022-08-23T14:59:20.908Z,30.60
2022-08-23T15:01:49.361Z,30.70
2022-08-23T15:19:20.164Z,30.70
2022-08-23T15:21:50.262Z,30.70
2022-08-23T15:24:21.526Z,30.60
2022-08-23T15:27:40.041Z,30.50
2022-08-23T15:34:23.196Z,30.60
2022-08-23T15:36:51.367Z,30.50
2022-08-23T15:42:09.187Z,30.60
2022-08-23T15:44:38.516Z,30.60
2022-08-23T16:03:19.938Z,30.30
2022-08-23T16:05:52.741Z,30.40
2022-08-23T16:08:19.997Z,30.40
2022-08-23T16:10:50.352Z,30.40
2022-08-23T16:13:23.212Z,30.30
2022-08-23T16:19:20.426Z,30.30
2022-08-23T16:25:25.156Z,30.30
2022-08-23T16:33:50.496Z,30.10
2022-08-23T16:36:19.964Z,30.00
2022-08-23T16:38:52.773Z,30.00
2022-08-23T16:41:22.892Z,30.00
2022-08-23T16:47:59.496Z,30.00
2022-08-23T16:56:00.390Z,29.90
2022-08-23T16:57:51.799Z,29.90
2022-08-23T17:03:50.892Z,29.80
2022-08-23T17:06:20.537Z,29.80
2022-08-23T17:08:50.137Z,29.70
2022-08-23T17:12:39.998Z,29.70
2022-08-23T17:18:32.169Z,29.60
2022-08-23T17:25:20.101Z,29.50
2022-08-23T17:28:21.680Z,29.40
2022-08-23T17:30:51.833Z,29.40
2022-08-23T17:36:56.247Z,29.30
2022-08-23T17:39:31.145Z,29.30
2022-08-23T17:42:02.455Z,29.20
2022-08-23T17:42:13.492Z,29.30
2022-08-23T17:44:32.408Z,29.20
2022-08-23T17:46:59.845Z,29.30
2022-08-23T17:49:27.776Z,29.30
2022-08-23T17:51:57.358Z,29.20
2022-08-23T17:54:24.745Z,29.20
2022-08-23T17:56:53.644Z,29.20
2022-08-23T17:59:57.342Z,29.10
2022-08-23T18:02:31.583Z,29.10
2022-08-23T18:05:09.923Z,29.00
2022-08-23T18:11:41.036Z,29.00
2022-08-23T18:14:16.660Z,28.90
2022-08-23T18:16:50.002Z,28.80
2022-08-23T18:24:39.891Z,28.60
2022-08-23T18:25:49.767Z,28.60
2022-08-23T18:30:03.486Z,28.50
2022-08-23T18:32:31.858Z,28.40
2022-08-23T18:35:06.120Z,28.40
2022-08-23T18:38:58.346Z,28.40
2022-08-23T18:44:32.252Z,28.30
2022-08-23T18:47:05.166Z,28.20
2022-08-23T18:49:42.419Z,28.20
2022-08-23T18:52:13.598Z,28.20
2022-08-23T18:55:35.813Z,28.10
2022-08-23T18:58:04.010Z,28.10
2022-08-23T19:00:35.407Z,28.10
2022-08-23T19:03:05.796Z,27.90
2022-08-23T19:05:48.703Z,27.90
2022-08-23T19:08:48.561Z,27.80
2022-08-23T19:11:16.229Z,27.80
2022-08-23T19:13:43.869Z,27.70
2022-08-23T19:16:36.984Z,27.70
2022-08-23T19:19:08.673Z,27.60
2022-08-23T19:21:36.255Z,27.50
2022-08-23T19:24:04.941Z,27.50
2022-08-23T19:26:34.380Z,27.40
2022-08-23T19:30:36.378Z,27.40
2022-08-23T19:33:04.642Z,27.30
2022-08-23T19:35:32.242Z,27.20
2022-08-23T19:38:02.728Z,27.10
2022-08-23T19:40:30.208Z,27.00
2022-08-23T19:42:59.015Z,27.00
2022-08-23T19:45:27.083Z,27.00
2022-08-23T19:47:59.882Z,27.00
2022-08-23T19:50:28.272Z,27.00
2022-08-23T19:53:03.534Z,26.90
2022-08-23T19:55:34.093Z,26.90
2022-08-23T19:58:01.539Z,26.90
2022-08-23T20:00:31.616Z,26.80
2022-08-23T20:06:19.022Z,26.80
2022-08-23T20:08:59.914Z,26.70
2022-08-23T20:11:27.968Z,26.70
2022-08-23T20:14:54.898Z,26.70
2022-08-23T20:17:23.183Z,26.60
2022-08-23T20:27:24.038Z,26.60
2022-08-23T20:30:15.045Z,26.50
2022-08-23T20:32:45.863Z,26.50
2022-08-23T20:35:13.881Z,26.40
2022-08-23T20:38:06.639Z,26.40
2022-08-23T20:44:03.507Z,26.40
2022-08-23T20:51:30.907Z,26.30
2022-08-23T20:53:12.934Z,26.30
2022-08-23T20:55:45.436Z,26.20
2022-08-23T20:58:13.358Z,26.10
2022-08-23T21:00:41.066Z,26.10
2022-08-23T21:03:08.511Z,26.10
2022-08-23T21:05:38.402Z,26.10
2022-08-23T21:08:06.122Z,26.10
2022-08-23T21:10:37.267Z,26.10
2022-08-23T21:13:11.281Z,26.00
2022-08-23T21:15:38.816Z,25.80
2022-08-23T21:18:08.462Z,25.60
2022-08-23T21:20:37.477Z,25.60
2022-08-23T21:23:06.977Z,25.60
2022-08-23T21:25:34.380Z,25.50
2022-08-23T21:28:04.312Z,25.40
2022-08-23T21:30:34.923Z,25.30
2022-08-23T21:33:04.051Z,25.40
2022-08-23T21:35:32.114Z,25.30
2022-08-23T21:37:59.770Z,25.30
2022-08-23T21:40:43.680Z,25.30
2022-08-23T21:43:29.588Z,25.30
2022-08-23T21:45:57.181Z,25.20
2022-08-23T21:48:26.216Z,25.30
2022-08-23T21:51:01.030Z,25.30
2022-08-23T21:57:29.836Z,25.30
2022-08-23T22:01:15.254Z,25.30
2022-08-23T22:04:41.364Z,25.10
2022-08-23T22:07:08.911Z,25.10
2022-08-23T22:09:51.004Z,25.10
2022-08-23T22:12:26.469Z,24.90
2022-08-23T22:14:53.796Z,24.80
2022-08-23T22:17:23.255Z,25.00
2022-08-23T22:19:51.679Z,25.20
2022-08-23T22:22:19.051Z,25.40
2022-08-23T22:24:46.364Z,25.50
2022-08-23T22:31:37.083Z,25.60
2022-08-23T22:34:05.408Z,25.00
2022-08-23T22:36:42.899Z,24.70
2022-08-23T22:40:00.090Z,24.70
2022-08-23T22:42:27.592Z,24.60
2022-08-23T22:51:23.381Z,24.80
2022-08-23T22:53:56.264Z,24.80
2022-08-23T22:56:30.270Z,24.70
2022-08-23T22:58:59.272Z,24.40
2022-08-23T23:02:34.603Z,24.30
2022-08-23T23:05:01.927Z,24.30
2022-08-23T23:11:05.551Z,24.80
2022-08-23T23:13:45.214Z,25.10
2022-08-23T23:16:16.049Z,25.30
2022-08-23T23:19:15.449Z,25.30
2022-08-23T23:22:02.699Z,25.30
2022-08-23T23:24:59.628Z,25.40
2022-08-23T23:27:39.233Z,25.40
2022-08-23T23:30:07.191Z,25.50
2022-08-23T23:32:34.535Z,25.60
2022-08-23T23:35:08.181Z,25.60
2022-08-23T23:37:35.863Z,25.60
2022-08-23T23:40:10.862Z,25.60
2022-08-23T23:43:02.289Z,25.50
2022-08-23T23:45:37.960Z,25.40
2022-08-23T23:48:08.836Z,25.40
2022-08-23T23:50:42.625Z,25.50
2022-08-23T23:53:12.719Z,25.50
2022-08-23T23:55:40.285Z,25.20
2022-08-23T23:58:07.623Z,25.10
